^^
Grace C. Lehan Memorial Weather Station Historical Data
Daily Summary for January 6, 2021 Units:  English    Metric   Both
Daily Weekly Monthly Yearly
  High: Low: Average:
Temperature: 49.2 °F 29.6 °F 34.2 °F
Dew Point: 36.8 °F 27.4 °F 30.2 °F
Humidity: 93.6% 61.9% 86%
Wind Speed: 0.8mph 0mph 0mph
Wind Gust: 5mph - -
Wind- - West
Pressure: 30.44 in 30.38 in -
Precipitation: 0.00 in    
 
 
Tabular Data for January 6, 2021
Time Temperature Dew Point Pressure Wind Wind Speed Wind Gust Humidity Rainfall Rate (Hourly) solar
00:09 35.7 °F 30.7 °F 30.38 in Calm     82% 0.00 in 0 W/m2
00:14 35.5 °F 30.6 °F 30.38 in Calm     82% 0.00 in 0 W/m2
00:19 35.3 °F 30.4 °F 30.38 in Calm     82.4% 0.00 in 0 W/m2
00:24 35.1 °F 30.4 °F 30.38 in Calm     83% 0.00 in 0 W/m2
00:29 34.9 °F 30.4 °F 30.38 in Calm     83.3% 0.00 in 0 W/m2
00:34 34.8 °F 30.4 °F 30.38 in Calm     84% 0.00 in 0 W/m2
00:39 34.7 °F 30.6 °F 30.39 in Calm     84.7% 0.00 in 0 W/m2
00:44 34.6 °F 30.6 °F 30.39 in Calm     85% 0.00 in 0 W/m2
00:49 34.6 °F 30.8 °F 30.39 in Calm     85.7% 0.00 in 0 W/m2
00:54 34.5 °F 30.8 °F 30.40 in Calm     86% 0.00 in 0 W/m2
00:59 34.4 °F 30.7 °F 30.40 in Calm     86% 0.00 in 0 W/m2
01:04 34.3 °F 30.6 °F 30.40 in Calm     86% 0.00 in 0 W/m2
01:09 34.2 °F 30.4 °F 30.40 in Calm     86% 0.00 in 0 W/m2
01:14 34 °F 30.3 °F 30.39 in Calm     86% 0.00 in 0 W/m2
01:19 33.9 °F 30.2 °F 30.40 in Calm     86.3% 0.00 in 0 W/m2
01:24 33.7 °F 30.2 °F 30.40 in Calm     86.9% 0.00 in 0 W/m2
01:29 33.6 °F 30.1 °F 30.40 in Calm     86.7% 0.00 in 0 W/m2
01:34 33.5 °F 30.1 °F 30.39 in Calm     87% 0.00 in 0 W/m2
01:39 33.4 °F 30 °F 30.39 in Calm     87% 0.00 in 0 W/m2
01:44 33.4 °F 29.9 °F 30.39 in Calm     87% 0.00 in 0 W/m2
01:49 33.3 °F 29.8 °F 30.39 in Calm     87% 0.00 in 0 W/m2
01:54 33.1 °F 29.7 °F 30.39 in Calm     87% 0.00 in 0 W/m2
01:59 33 °F 29.6 °F 30.39 in Calm     87% 0.00 in 0 W/m2
02:04 32.9 °F 29.5 °F 30.39 in Calm     87% 0.00 in 0 W/m2
02:09 32.8 °F 29.3 °F 30.39 in Calm     87% 0.00 in 0 W/m2
02:14 32.7 °F 29.3 °F 30.39 in Calm     87.4% 0.00 in 0 W/m2
02:19 32.5 °F 29.4 °F 30.39 in Calm     88% 0.00 in 0 W/m2
02:24 32.5 °F 29.3 °F 30.39 in Calm     88% 0.00 in 0 W/m2
02:29 32.4 °F 29.3 °F 30.39 in Calm     88% 0.00 in 0 W/m2
02:34 32.3 °F 29.2 °F 30.39 in Calm     88% 0.00 in 0 W/m2
02:39 32.3 °F 29.2 °F 30.39 in Calm     88% 0.00 in 0 W/m2
02:44 32.3 °F 29.1 °F 30.39 in Calm     88% 0.00 in 0 W/m2
02:49 32.2 °F 29.2 °F 30.40 in Calm     88.5% 0.00 in 0 W/m2
02:54 32.2 °F 29.3 °F 30.40 in Calm     89% 0.00 in 0 W/m2
02:59 32.2 °F 29.3 °F 30.40 in Calm     89% 0.00 in 0 W/m2
03:04 32.1 °F 29.2 °F 30.40 in Calm     89% 0.00 in 0 W/m2
03:09 32 °F 29.4 °F 30.40 in Calm     89.8% 0.00 in 0 W/m2
03:14 31.9 °F 29.1 °F 30.40 in Calm     89.1% 0.00 in 0 W/m2
03:19 31.8 °F 29 °F 30.40 in Calm     89% 0.00 in 0 W/m2
03:24 31.7 °F 28.9 °F 30.40 in Calm     89% 0.00 in 0 W/m2
03:29 31.7 °F 28.8 °F 30.41 in Calm     89% 0.00 in 0 W/m2
03:34 31.6 °F 28.7 °F 30.41 in Calm     89% 0.00 in 0 W/m2
03:39 31.5 °F 28.7 °F 30.41 in Calm     89% 0.00 in 0 W/m2
03:44 31.5 °F 28.6 °F 30.41 in Calm     89% 0.00 in 0 W/m2
03:49 31.4 °F 28.5 °F 30.41 in Calm     89% 0.00 in 0 W/m2
03:54 31.4 °F 28.8 °F 30.41 in Calm     89.8% 0.00 in 0 W/m2
03:59 31.4 °F 28.8 °F 30.41 in Calm     90% 0.00 in 0 W/m2
04:00 31.4 °F 28.8 °F 30.41 in Calm     90% 0.00 in 0 W/m2
04:09 31.3 °F 28.7 °F 30.41 in Calm     90% 0.00 in 0 W/m2
04:14 31.2 °F 28.6 °F 30.41 in Calm     90% 0.00 in 0 W/m2
04:19 31.2 °F 28.6 °F 30.41 in Calm     90% 0.00 in 0 W/m2
04:24 31.1 °F 28.6 °F 30.41 in Calm     90% 0.00 in 0 W/m2
04:29 31.1 °F 28.5 °F 30.41 in Calm     90% 0.00 in 0 W/m2
04:34 31 °F 28.4 °F 30.41 in Calm     90% 0.00 in 0 W/m2
04:39 30.9 °F 28.3 °F 30.41 in Calm     90% 0.00 in 0 W/m2
04:44 30.8 °F 28.2 °F 30.41 in Calm     90% 0.00 in 0 W/m2
04:49 30.8 °F 28.2 °F 30.41 in Calm     90% 0.00 in 0 W/m2
04:54 30.8 °F 28.2 °F 30.42 in Calm     90% 0.00 in 0 W/m2
04:59 30.7 °F 28.1 °F 30.42 in Calm     90% 0.00 in 0 W/m2
05:04 30.7 °F 28.1 °F 30.42 in Calm     90% 0.00 in 0 W/m2
05:09 30.6 °F 28.3 °F 30.42 in Calm     91% 0.00 in 0 W/m2
05:14 30.6 °F 28.3 °F 30.42 in Calm     91% 0.00 in 0 W/m2
05:19 30.6 °F 28.3 °F 30.42 in Calm     91% 0.00 in 0 W/m2
05:24 30.6 °F 28.3 °F 30.42 in Calm     91% 0.00 in 0 W/m2
05:29 30.5 °F 28.2 °F 30.42 in Calm     91% 0.00 in 0 W/m2
05:34 30.5 °F 28.2 °F 30.43 in Calm     91% 0.00 in 0 W/m2
05:39 30.4 °F 28.1 °F 30.43 in Calm     91% 0.00 in 0 W/m2
05:44 30.3 °F 28 °F 30.43 in Calm     91% 0.00 in 0 W/m2
05:49 30.2 °F 27.9 °F 30.42 in Calm     91% 0.00 in 0 W/m2
05:54 30.2 °F 27.9 °F 30.43 in Calm     91% 0.00 in 0 W/m2
05:59 30.1 °F 27.8 °F 30.43 in Calm     91% 0.00 in 0 W/m2
06:04 30 °F 27.7 °F 30.43 in Calm     91% 0.00 in 0 W/m2
06:09 29.9 °F 27.6 °F 30.43 in Calm     91% 0.00 in 0 W/m2
06:14 29.9 °F 27.6 °F 30.44 in Calm     91% 0.00 in 0 W/m2
06:19 29.8 °F 27.5 °F 30.44 in Calm     91% 0.00 in 0 W/m2
06:24 29.8 °F 27.5 °F 30.44 in Calm     91% 0.00 in 0 W/m2
06:29 29.7 °F 27.4 °F 30.43 in Calm     91% 0.00 in 0 W/m2
06:34 29.7 °F 27.4 °F 30.43 in Calm     91% 0.00 in 0 W/m2
06:39 29.7 °F 27.4 °F 30.43 in Calm     91% 0.00 in 0 W/m2
06:44 29.7 °F 27.7 °F 30.42 in Calm     92% 0.00 in 0 W/m2
06:49 29.7 °F 27.7 °F 30.42 in Calm     92% 0.00 in 0 W/m2
06:54 29.7 °F 27.7 °F 30.43 in Calm     92% 0.00 in 0 W/m2
06:59 29.7 °F 27.7 °F 30.43 in Calm     92% 0.00 in 0 W/m2
07:04 29.7 °F 27.7 °F 30.43 in Calm     92% 0.00 in 0 W/m2
07:09 29.7 °F 27.7 °F 30.43 in Calm     92% 0.00 in 0 W/m2
07:14 29.7 °F 27.7 °F 30.43 in Calm     92% 0.00 in 0 W/m2
07:19 29.7 °F 27.6 °F 30.43 in Calm     92% 0.00 in 0 W/m2
07:24 29.6 °F 27.6 °F 30.42 in Calm     92% 0.00 in 0 W/m2
07:29 29.6 °F 27.6 °F 30.42 in Calm     92% 0.00 in 0 W/m2
07:34 29.6 °F 27.6 °F 30.43 in Calm     92% 0.00 in 5 W/m2
07:39 29.6 °F 27.6 °F 30.43 in Calm     92% 0.00 in 9 W/m2
07:44 29.6 °F 27.6 °F 30.43 in Calm     92% 0.00 in 12 W/m2
07:49 29.6 °F 27.6 °F 30.43 in Calm     92% 0.00 in 14 W/m2
07:54 29.6 °F 27.6 °F 30.43 in Calm     92% 0.00 in 16 W/m2
07:58 29.6 °F 27.6 °F 30.43 in Calm     92% 0.00 in 21 W/m2
08:00 29.7 °F 27.9 °F 30.43 in Calm     93% 0.00 in 26 W/m2
08:09 30.2 °F 28.4 °F 30.43 in Calm     93% 0.00 in 35 W/m2
08:14 30.6 °F 28.8 °F 30.43 in Calm     93% 0.00 in 37 W/m2
08:19 30.8 °F 29.1 °F 30.43 in Calm     93% 0.00 in 28 W/m2
08:24 31 °F 29.2 °F 30.43 in NW 0.1 mph 1 mph 93% 0.00 in 37 W/m2
08:29 31.1 °F 29.3 °F 30.43 in NW 0.1 mph 2 mph 93% 0.00 in 37 W/m2
08:34 31.3 °F 29.5 °F 30.43 in NW 0.2 mph 2 mph 93% 0.00 in 79 W/m2
08:39 31.5 °F 29.7 °F 30.43 in Calm   2 mph 93% 0.00 in 63 W/m2
08:44 31.7 °F 30 °F 30.43 in Calm   2 mph 93% 0.00 in 46 W/m2
08:49 32.1 °F 30.3 °F 30.43 in Calm   2 mph 93% 0.00 in 53 W/m2
08:54 32.5 °F 30.7 °F 30.44 in Calm   2 mph 93% 0.00 in 72 W/m2
08:59 32.8 °F 31 °F 30.44 in Calm   2 mph 93% 0.00 in 218 W/m2
09:04 33.4 °F 31.6 °F 30.43 in NW 0.1 mph 2 mph 93% 0.00 in 257 W/m2
09:09 34.2 °F 32.5 °F 30.43 in NNW 0.6 mph 3 mph 93.6% 0.00 in 271 W/m2
09:14 35 °F 32.8 °F 30.43 in Calm   3 mph 91.7% 0.00 in 287 W/m2
09:19 35.9 °F 33.3 °F 30.43 in Calm   3 mph 90.2% 0.00 in 297 W/m2
09:24 37 °F 34 °F 30.43 in Calm   3 mph 88.8% 0.00 in 311 W/m2
09:29 38.1 °F 34.5 °F 30.44 in NNW 0.6 mph 3 mph 86.5% 0.00 in 327 W/m2
09:34 39.2 °F 34.3 °F 30.43 in Calm   3 mph 82.5% 0.00 in 341 W/m2
09:39 40.2 °F 34.8 °F 30.43 in Calm   1 mph 81.1% 0.00 in 352 W/m2
09:44 41.3 °F 35.2 °F 30.43 in Calm   1 mph 78.8% 0.00 in 364 W/m2
09:49 42.1 °F 34.9 °F 30.44 in Calm   1 mph 75.5% 0.00 in 374 W/m2
09:54 42.5 °F 34.7 °F 30.44 in Calm   1 mph 73.6% 0.00 in 387 W/m2
09:59 43 °F 35 °F 30.44 in Calm   1 mph 73.2% 0.00 in 399 W/m2
10:04 43.3 °F 34.9 °F 30.43 in Calm   1 mph 72% 0.00 in 413 W/m2
10:09 43.5 °F 34.8 °F 30.43 in Calm     71.2% 0.00 in 418 W/m2
10:14 43.8 °F 35 °F 30.43 in Calm     71% 0.00 in 418 W/m2
10:19 44.1 °F 34.7 °F 30.43 in Calm     69.3% 0.00 in 415 W/m2
10:24 44.2 °F 34.4 °F 30.42 in Calm     68.2% 0.00 in 403 W/m2
10:29 43.9 °F 34.1 °F 30.42 in NNW 0.3 mph 2 mph 68% 0.00 in 439 W/m2
10:34 43.7 °F 33.9 °F 30.42 in NNW 0.8 mph 4 mph 68.2% 0.00 in 360 W/m2
10:39 43.6 °F 34 °F 30.42 in North 0.6 mph 4 mph 68.6% 0.00 in 360 W/m2
10:44 43.4 °F 33.7 °F 30.42 in Calm   4 mph 68.3% 0.00 in 367 W/m2
10:49 43.3 °F 34 °F 30.42 in Calm   4 mph 69.3% 0.00 in 218 W/m2
10:54 43.3 °F 34 °F 30.42 in Calm   4 mph 69.3% 0.00 in 457 W/m2
10:59 43.5 °F 34.3 °F 30.42 in Calm   4 mph 69.8% 0.00 in 367 W/m2
11:04 43.7 °F 34.4 °F 30.42 in Calm   4 mph 69.6% 0.00 in 355 W/m2
11:09 43.9 °F 34.9 °F 30.42 in NNE 0.6 mph 5 mph 70.3% 0.00 in 457 W/m2
11:14 44.5 °F 35.2 °F 30.42 in Calm   5 mph 69.9% 0.00 in 536 W/m2
11:19 45.4 °F 35.4 °F 30.42 in Calm   5 mph 67.9% 0.00 in 541 W/m2
11:24 46.3 °F 35.8 °F 30.42 in Calm   5 mph 66.7% 0.00 in 550 W/m2
11:29 47.3 °F 36.8 °F 30.42 in Calm   5 mph 66.8% 0.00 in 561 W/m2
11:34 48 °F 36.4 °F 30.41 in Calm   5 mph 63.9% 0.00 in 564 W/m2
11:39 48.6 °F 36.6 °F 30.41 in Calm   1 mph 63% 0.00 in 563 W/m2
11:43 49.2 °F 36.7 °F 30.41 in Calm   1 mph 61.9% 0.00 in 548 W/m2
Hartford County Weather
Compliments of Weather Underground - 2 mb